Time;durP1;ratioP1;P1;durP2;ratioP2;P2;SDS_P1;SDS_P2;PMS_P1;PMS_P2;Temp;Humidity;BMP_temperature;BMP_pressure;BME280_temperature;BME280_humidity;BME280_pressure;Samples;Min_cycle;Max_cycle;Signal;HPM_P1;HPM_P2
2021/10/16 00:00:08;;;;;;;15.70;12.40;;;7.70;1.00;9.00;100980.00;;;;4958060;28;20532;-82
2021/10/16 00:02:41;;;;;;;14.13;12.83;;;7.70;1.00;9.00;100988.00;;;;4950673;29;20509;-83
2021/10/16 00:05:10;;;;;;;14.50;13.00;;;7.80;1.00;9.00;101008.00;;;;4938104;29;20455;-83
2021/10/16 00:07:39;;;;;;;13.03;11.60;;;7.70;1.00;9.00;101008.00;;;;4949944;29;20484;-82
2021/10/16 00:10:09;;;;;;;13.07;11.77;;;7.80;1.00;9.00;101009.00;;;;4956038;29;20457;-83
2021/10/16 00:12:38;;;;;;;12.53;10.70;;;7.80;1.00;8.80;100977.00;;;;4958836;29;20459;-82
2021/10/16 00:15:08;;;;;;;17.33;12.13;;;8.00;1.00;8.90;101011.00;;;;4944575;29;20557;-82
2021/10/16 00:17:37;;;;;;;16.47;12.33;;;7.80;1.00;9.00;100992.00;;;;4946462;28;20512;-81
2021/10/16 00:20:10;;;;;;;14.57;11.60;;;7.80;1.00;8.90;100939.00;;;;4940242;29;20446;-82
2021/10/16 00:22:38;;;;;;;17.10;12.23;;;7.70;1.00;8.90;100990.00;;;;4958571;29;20457;-85
2021/10/16 00:25:08;;;;;;;17.57;12.17;;;7.70;1.00;8.90;101011.00;;;;4944052;29;20465;-83
2021/10/16 00:27:37;;;;;;;16.90;13.20;;;7.70;1.00;8.90;101007.00;;;;4959765;29;20502;-83
2021/10/16 00:30:07;;;;;;;14.27;12.20;;;7.60;1.00;8.80;100987.00;;;;4959059;29;20674;-82
2021/10/16 00:32:36;;;;;;;15.73;12.90;;;7.50;1.00;8.80;101009.00;;;;4957973;28;20456;-83
2021/10/16 00:35:07;;;;;;;17.03;13.37;;;7.50;1.00;8.80;101019.00;;;;4956130;29;20469;-82
2021/10/16 00:37:35;;;;;;;16.70;14.57;;;7.50;1.00;8.60;101014.00;;;;4953231;29;20504;-81
2021/10/16 00:40:06;;;;;;;17.97;16.07;;;7.50;1.00;8.70;101015.00;;;;4958815;29;20457;-83
2021/10/16 00:42:45;;;;;;;20.67;18.67;;;7.50;1.00;8.70;100999.00;;;;4953018;29;20458;-81
2021/10/16 00:45:14;;;;;;;20.83;18.73;;;7.40;1.00;8.70;100985.00;;;;4931927;29;20480;-82
2021/10/16 00:47:42;;;;;;;18.17;16.37;;;7.40;1.00;8.70;101016.00;;;;4946790;29;20485;-82
2021/10/16 00:50:14;;;;;;;20.33;18.43;;;7.40;1.00;8.60;101013.00;;;;4948673;29;20472;-82
2021/10/16 00:52:44;;;;;;;18.30;16.50;;;7.30;1.00;8.50;101037.00;;;;4934980;29;20456;-81
2021/10/16 00:55:15;;;;;;;15.60;14.00;;;7.30;1.00;8.60;101015.00;;;;4952101;29;20460;-82
2021/10/16 00:57:44;;;;;;;17.80;15.00;;;7.20;1.00;8.50;100994.00;;;;4951460;29;20506;-82
2021/10/16 01:00:15;;;;;;;18.30;16.40;;;7.10;1.00;8.50;101010.00;;;;4961369;29;20993;-82
2021/10/16 01:02:43;;;;;;;20.90;16.47;;;7.10;1.00;8.50;101022.00;;;;4960913;28;20454;-83
2021/10/16 01:05:16;;;;;;;19.87;17.97;;;7.00;1.00;8.40;101019.00;;;;4963595;29;20470;-83
2021/10/16 01:07:44;;;;;;;22.00;19.93;;;7.00;1.00;8.40;101023.00;;;;4947663;29;20504;-84
2021/10/16 01:10:15;;;;;;;24.67;22.37;;;7.00;1.00;8.50;100969.00;;;;4970755;28;20444;-83
2021/10/16 01:12:45;;;;;;;26.87;24.17;;;7.10;1.00;8.40;100994.00;;;;4948430;29;20458;-83
2021/10/16 01:15:17;;;;;;;19.47;17.33;;;7.00;1.00;8.40;100997.00;;;;4951948;29;20466;-83
2021/10/16 01:17:48;;;;;;;18.80;16.90;;;7.00;1.00;8.40;101012.00;;;;4947410;29;20476;-84
2021/10/16 01:20:20;;;;;;;18.90;16.87;;;6.90;1.00;8.30;101011.00;;;;4969361;28;20511;-83
2021/10/16 01:22:52;;;;;;;22.33;20.03;;;6.90;1.00;8.30;101016.00;;;;4964977;28;20480;-83
2021/10/16 01:25:23;;;;;;;23.10;20.60;;;6.90;1.00;8.30;101011.00;;;;4985144;28;20496;-81
2021/10/16 01:27:55;;;;;;;22.83;20.63;;;6.80;1.00;8.20;101013.00;;;;4959743;28;20472;-82
2021/10/16 01:30:25;;;;;;;20.50;18.50;;;6.80;1.00;8.20;101010.00;;;;4948577;28;20469;-82
2021/10/16 01:32:54;;;;;;;24.07;19.47;;;6.80;1.00;8.20;101013.00;;;;4967274;28;20448;-83
2021/10/16 01:35:23;;;;;;;21.43;19.10;;;6.80;1.00;8.20;101002.00;;;;4961507;28;20448;-83
2021/10/16 01:37:53;;;;;;;24.13;21.53;;;6.80;1.00;8.10;100983.00;;;;4964911;28;20489;-83
2021/10/16 01:40:25;;;;;;;20.63;18.43;;;6.60;1.00;8.10;100985.00;;;;4929064;29;20460;-80
2021/10/16 01:42:54;;;;;;;23.07;20.03;;;6.50;1.00;8.00;100982.00;;;;4949682;29;20447;-81
2021/10/16 01:45:24;;;;;;;22.30;19.50;;;6.50;1.00;8.00;100997.00;;;;4961169;29;20488;-82
2021/10/16 01:47:57;;;;;;;22.07;19.70;;;6.60;1.00;8.00;101008.00;;;;4963059;28;20478;-82
2021/10/16 01:50:41;;;;;;;23.83;19.33;;;6.50;1.00;8.00;101008.00;;;;4953055;28;20475;-81
2021/10/16 01:53:21;;;;;;;24.67;21.17;;;6.50;1.00;7.90;67963.00;;;;4965405;28;20437;-81
2021/10/16 01:55:56;;;;;;;24.40;21.83;;;6.40;1.00;7.90;100999.00;;;;4975257;28;20459;-82
2021/10/16 01:58:27;;;;;;;22.03;19.67;;;6.40;1.00;7.90;101004.00;;;;4945624;29;20461;-81
2021/10/16 02:01:22;;;;;;;20.67;18.67;;;6.30;1.00;7.80;100985.00;;;;4962432;29;20464;-82
2021/10/16 02:03:58;;;;;;;18.57;16.87;;;6.30;1.00;7.80;101009.00;;;;4961249;29;20593;-81
2021/10/16 02:06:30;;;;;;;21.37;19.20;;;6.30;1.00;7.80;101020.00;;;;4941474;29;20485;-82
2021/10/16 02:09:01;;;;;;;21.10;19.00;;;6.30;1.00;7.80;101006.00;;;;4937699;29;20473;-82
2021/10/16 02:11:30;;;;;;;21.60;19.13;;;6.40;1.00;7.80;101004.00;;;;4954917;29;20446;-83
2021/10/16 02:14:00;;;;;;;21.50;19.33;;;6.30;1.00;7.80;100967.00;;;;4960912;29;20443;-82
2021/10/16 02:16:31;;;;;;;24.33;20.53;;;6.30;1.00;7.80;101012.00;;;;4955211;29;20508;-82
2021/10/16 02:19:03;;;;;;;20.27;18.27;;;6.30;1.00;7.70;101001.00;;;;4952607;29;20975;-80
2021/10/16 02:21:34;;;;;;;20.00;18.00;;;6.10;1.00;7.80;100998.00;;;;4954833;28;20548;-81
2021/10/16 02:24:04;;;;;;;20.33;18.37;;;6.10;1.00;7.80;101002.00;;;;4955047;29;20524;-82
2021/10/16 02:26:40;;;;;;;18.83;16.50;;;6.20;1.00;7.80;101005.00;;;;4932098;29;20452;-82
2021/10/16 02:29:13;;;;;;;20.47;18.27;;;6.20;1.00;7.80;100976.00;;;;4947594;29;20544;-80
2021/10/16 02:31:56;;;;;;;19.70;17.60;;;6.20;1.00;7.70;101010.00;;;;4948128;29;20452;-83
2021/10/16 02:34:25;;;;;;;38.50;21.87;;;6.00;1.00;7.80;100992.00;;;;4944062;29;20459;-82
2021/10/16 02:36:57;;;;;;;49.43;25.10;;;6.00;1.00;7.70;101012.00;;;;4946522;29;21004;-82
2021/10/16 02:39:28;;;;;;;50.73;24.27;;;6.00;1.00;7.70;100991.00;;;;4968474;28;20472;-85
2021/10/16 02:41:58;;;;;;;37.87;23.30;;;6.00;1.00;7.70;101013.00;;;;4961691;28;20636;-83
2021/10/16 02:44:29;;;;;;;51.33;22.83;;;6.00;1.00;7.70;101006.00;;;;4962106;28;20944;-82
2021/10/16 02:47:00;;;;;;;75.47;28.33;;;5.90;1.00;7.70;100998.00;;;;4956163;29;20468;-82
2021/10/16 02:49:28;;;;;;;70.07;24.27;;;6.00;1.00;7.60;101020.00;;;;4941768;29;20459;-83
2021/10/16 02:51:58;;;;;;;130.17;33.40;;;5.90;1.00;7.70;101022.00;;;;4947273;29;20461;-81
2021/10/16 02:54:28;;;;;;;172.60;35.33;;;6.10;1.00;7.70;100991.00;;;;4956167;28;20484;-83
2021/10/16 02:56:59;;;;;;;198.73;40.80;;;6.00;1.00;7.60;101021.00;;;;4942650;29;20472;-83
2021/10/16 02:59:28;;;;;;;61.73;25.20;;;6.00;1.00;7.60;101023.00;;;;4963756;29;20687;-83
2021/10/16 03:01:59;;;;;;;91.13;31.30;;;6.00;1.00;7.70;101018.00;;;;4970890;28;20963;-82
2021/10/16 03:04:30;;;;;;;100.80;28.67;;;6.00;1.00;7.70;101024.00;;;;4944745;29;20985;-82
2021/10/16 03:07:00;;;;;;;55.67;23.60;;;6.10;1.00;7.70;101012.00;;;;4959484;28;20457;-82
2021/10/16 03:09:36;;;;;;;51.53;25.50;;;6.00;1.00;7.70;101000.00;;;;4942651;29;20459;-82
2021/10/16 03:12:06;;;;;;;28.80;20.80;;;6.10;1.00;7.70;100981.00;;;;4927460;29;20453;-83
2021/10/16 03:14:41;;;;;;;21.73;19.43;;;6.00;1.00;7.70;101007.00;;;;4942920;29;20457;-81
2021/10/16 03:17:09;;;;;;;22.70;19.70;;;6.10;1.00;7.70;101027.00;;;;4943670;29;20481;-82
2021/10/16 03:19:38;;;;;;;20.83;18.73;;;6.00;1.00;7.60;100994.00;;;;4973806;28;20513;-81
2021/10/16 03:22:08;;;;;;;20.13;17.20;;;6.00;1.00;7.60;101026.00;;;;4954973;29;20445;-82
2021/10/16 03:24:42;;;;;;;17.90;16.20;;;6.00;1.00;7.60;101011.00;;;;4943920;28;20458;-82
2021/10/16 03:27:12;;;;;;;19.00;16.60;;;5.90;1.00;7.60;101022.00;;;;4935370;29;20503;-81
2021/10/16 03:29:41;;;;;;;17.90;16.17;;;5.80;1.00;7.50;100981.00;;;;4958861;28;20485;-82
2021/10/16 03:32:10;;;;;;;26.47;18.00;;;5.80;1.00;7.50;101019.00;;;;4963093;28;20469;-82
2021/10/16 03:34:39;;;;;;;26.23;17.47;;;5.70;1.00;7.40;101011.00;;;;4967066;28;20473;-82
2021/10/16 03:37:09;;;;;;;40.70;20.83;;;5.70;1.00;7.40;101017.00;;;;5044989;23;20501;-82
2021/10/16 03:39:40;;;;;;;30.93;19.67;;;5.70;1.00;7.40;100985.00;;;;4958223;28;20469;-83
2021/10/16 03:42:12;;;;;;;32.43;21.57;;;5.70;1.00;7.40;101025.00;;;;4952577;28;20450;-83
2021/10/16 03:44:49;;;;;;;32.07;22.47;;;5.70;1.00;7.50;100990.00;;;;4948541;29;20547;-83
2021/10/16 03:47:18;;;;;;;38.70;21.27;;;5.60;1.00;7.50;67894.00;;;;4948144;29;20485;-83
2021/10/16 03:49:46;;;;;;;35.93;21.33;;;5.60;1.00;7.40;100997.00;;;;4973847;28;20445;-82
2021/10/16 03:52:15;;;;;;;29.10;19.23;;;5.70;1.00;7.40;101019.00;;;;4975475;28;20766;-85
2021/10/16 03:54:49;;;;;;;34.10;20.90;;;5.60;1.00;7.40;101012.00;;;;4976958;28;20461;-83
2021/10/16 03:57:18;;;;;;;17.63;16.00;;;5.40;1.00;7.30;101017.00;;;;4973360;28;20485;-83
2021/10/16 03:59:47;;;;;;;19.27;17.57;;;5.50;1.00;7.30;101028.00;;;;4957034;29;20478;-82
2021/10/16 04:02:18;;;;;;;18.13;16.47;;;5.50;1.00;7.30;100998.00;;;;4968275;28;20468;-83
2021/10/16 04:04:47;;;;;;;21.17;18.17;;;5.50;1.00;7.30;100964.00;;;;4959933;29;20469;-83
2021/10/16 04:07:16;;;;;;;24.77;20.40;;;5.60;1.00;7.40;100988.00;;;;4941043;29;20513;-83
2021/10/16 04:09:50;;;;;;;19.57;17.53;;;5.60;1.00;7.40;100874.00;;;;4939533;29;20457;-82
2021/10/16 04:12:19;;;;;;;20.60;18.20;;;5.70;1.00;7.50;100982.00;;;;4937870;29;20457;-83
2021/10/16 04:14:48;;;;;;;30.63;21.40;;;5.70;1.00;7.50;101020.00;;;;4936856;29;20465;-83
2021/10/16 04:17:20;;;;;;;34.20;21.43;;;5.70;1.00;7.60;101035.00;;;;4936820;29;20509;-84
2021/10/16 04:19:51;;;;;;;61.20;24.93;;;5.80;1.00;7.60;101014.00;;;;4934914;29;20461;-84
2021/10/16 04:22:20;;;;;;;88.20;25.03;;;5.80;1.00;7.70;100999.00;;;;4936217;29;20509;-83
2021/10/16 04:24:50;;;;;;;113.03;32.20;;;5.80;1.00;7.70;101021.00;;;;4939917;29;20513;-85
2021/10/16 04:27:21;;;;;;;133.63;31.00;;;5.80;1.00;7.70;101025.00;;;;4963621;28;20524;-85
2021/10/16 04:29:57;;;;;;;79.80;24.67;;;5.70;1.00;7.40;100903.00;;;;4971601;28;20464;-85
2021/10/16 04:32:35;;;;;;;77.80;25.87;;;5.60;1.00;7.60;101038.00;;;;4969830;28;20445;-82
2021/10/16 04:35:06;;;;;;;40.67;22.03;;;5.60;1.00;7.70;101033.00;;;;4974290;28;20461;-84
2021/10/16 04:37:34;;;;;;;83.03;25.13;;;5.70;1.00;7.80;101046.00;;;;4968746;28;20520;-84
2021/10/16 04:40:12;;;;;;;43.60;20.13;;;5.70;1.00;7.60;101033.00;;;;4969977;29;20488;-84
2021/10/16 04:42:42;;;;;;;108.57;28.00;;;5.80;1.00;7.80;101036.00;;;;4971918;29;20468;-83
2021/10/16 04:45:13;;;;;;;109.90;27.27;;;5.70;1.00;7.80;101024.00;;;;4952521;29;20465;-83
2021/10/16 04:47:42;;;;;;;48.93;21.60;;;5.70;1.00;7.80;100989.00;;;;4957943;28;20479;-82
2021/10/16 04:50:12;;;;;;;77.80;24.20;;;5.70;1.00;7.80;101031.00;;;;4957096;28;20454;-83
2021/10/16 04:52:45;;;;;;;91.60;26.60;;;5.80;1.00;7.90;101032.00;;;;4956501;28;20442;-82
2021/10/16 04:55:24;;;;;;;76.17;20.63;;;5.80;1.00;7.80;101036.00;;;;4966682;28;20548;-82
2021/10/16 04:57:53;;;;;;;47.60;19.80;;;5.80;1.00;52.70;159807.00;;;;4942304;29;20568;-81
2021/10/16 05:00:25;;;;;;;46.77;18.60;;;5.80;1.00;7.70;100976.00;;;;4958486;28;20465;-82
2021/10/16 05:02:54;;;;;;;23.83;15.30;;;5.80;1.00;7.70;101026.00;;;;4962447;28;20461;-82
2021/10/16 05:05:23;;;;;;;20.30;15.37;;;5.70;1.00;7.70;101015.00;;;;4934947;29;20453;-81
2021/10/16 05:07:51;;;;;;;27.87;14.57;;;5.90;1.00;7.70;101037.00;;;;4935359;29;20517;-82
2021/10/16 05:10:20;;;;;;;16.90;13.40;;;5.80;1.00;7.70;101036.00;;;;4959529;28;20464;-82
2021/10/16 05:12:50;;;;;;;27.50;14.13;;;5.80;1.00;7.60;100995.00;;;;4943315;29;20469;-82
2021/10/16 05:15:19;;;;;;;28.17;13.43;;;5.80;1.00;7.60;101045.00;;;;4960466;28;20457;-82
2021/10/16 05:17:47;;;;;;;13.23;11.90;;;5.70;1.00;7.60;101034.00;;;;4962242;28;20496;-83
2021/10/16 05:20:21;;;;;;;13.27;11.97;;;5.70;1.00;7.60;101033.00;;;;4947272;29;20461;-83
2021/10/16 05:22:53;;;;;;;15.30;12.20;;;5.70;1.00;7.50;101057.00;;;;4967325;28;20464;-82
2021/10/16 05:25:21;;;;;;;15.73;12.47;;;5.80;1.00;7.70;101026.00;;;;4952049;29;21047;-82
2021/10/16 05:27:51;;;;;;;14.10;12.30;;;5.70;1.00;7.80;101045.00;;;;4965899;28;20856;-82
2021/10/16 05:30:21;;;;;;;15.53;11.87;;;5.80;1.00;7.70;101044.00;;;;4948635;28;20546;-82
2021/10/16 05:32:49;;;;;;;13.43;12.13;;;5.80;1.00;7.80;101048.00;;;;4942127;29;20449;-81
2021/10/16 05:35:20;;;;;;;12.83;11.53;;;5.80;1.00;7.80;101051.00;;;;4938864;29;20473;-82
2021/10/16 05:37:49;;;;;;;17.77;11.83;;;5.80;1.00;7.80;101028.00;;;;4949358;28;20549;-82
2021/10/16 05:40:18;;;;;;;13.90;11.80;;;5.80;1.00;7.90;101046.00;;;;4949956;29;20500;-81
2021/10/16 05:42:47;;;;;;;20.27;12.97;;;5.80;1.00;7.60;101056.00;;;;4930150;29;20464;-81
2021/10/16 05:45:17;;;;;;;16.13;13.00;;;5.80;1.00;7.80;101047.00;;;;4948900;28;20453;-83
2021/10/16 05:47:48;;;;;;;27.63;16.23;;;5.80;1.00;7.80;100966.00;;;;4937023;29;20489;-81
2021/10/16 05:50:17;;;;;;;21.50;14.83;;;5.80;1.00;7.90;101054.00;;;;4932996;29;20465;-81
2021/10/16 05:52:46;;;;;;;19.47;14.00;;;5.80;1.00;7.90;101035.00;;;;4951510;29;20469;-81
2021/10/16 05:55:17;;;;;;;23.23;16.07;;;5.90;1.00;7.90;101005.00;;;;4952268;28;20460;-83
2021/10/16 05:57:46;;;;;;;24.53;15.13;;;5.80;1.00;7.80;101036.00;;;;4935723;29;20584;-83
2021/10/16 06:00:17;;;;;;;19.00;13.47;;;5.80;1.00;7.80;101064.00;;;;4949125;28;20475;-83
2021/10/16 06:02:53;;;;;;;12.03;10.63;;;5.80;1.00;7.80;101038.00;;;;4952499;28;20457;-82
2021/10/16 06:05:30;;;;;;;12.00;10.10;;;5.80;1.00;7.80;101083.00;;;;4934520;29;20486;-81
2021/10/16 06:07:59;;;;;;;12.53;11.00;;;5.70;1.00;7.70;101064.00;;;;4964413;29;20469;-81
2021/10/16 06:10:28;;;;;;;11.80;10.30;;;5.70;1.00;7.70;101059.00;;;;4951424;29;20484;-84
2021/10/16 06:12:57;;;;;;;13.20;10.13;;;5.70;1.00;7.60;101047.00;;;;4954099;29;20454;-86
2021/10/16 06:15:27;;;;;;;12.50;11.20;;;5.60;1.00;7.60;101095.00;;;;4940430;29;20464;-84
2021/10/16 06:17:56;;;;;;;14.80;10.40;;;5.60;1.00;52.70;159803.00;;;;4951213;28;20986;-82
2021/10/16 06:20:29;;;;;;;12.90;11.00;;;5.60;1.00;7.50;101095.00;;;;4950074;28;20465;-82
2021/10/16 06:22:59;;;;;;;15.00;11.40;;;5.60;1.00;7.50;101087.00;;;;4950681;29;20580;-82
2021/10/16 06:25:28;;;;;;;14.90;11.30;;;5.50;1.00;7.60;101093.00;;;;4933164;29;20466;-81
2021/10/16 06:27:56;;;;;;;16.43;11.07;;;5.60;1.00;7.60;101087.00;;;;4948572;28;20497;-82
2021/10/16 06:30:26;;;;;;;14.20;11.20;;;5.80;1.00;7.60;101070.00;;;;4950462;28;20474;-82
2021/10/16 06:32:55;;;;;;;12.47;10.60;;;5.70;1.00;7.70;101095.00;;;;4937995;29;20461;-82
2021/10/16 06:35:30;;;;;;;12.60;11.30;;;5.70;1.00;7.80;101108.00;;;;4956220;28;20465;-82
2021/10/16 06:38:05;;;;;;;14.10;11.60;;;5.70;1.00;7.80;101113.00;;;;4961166;29;20489;-81
2021/10/16 06:40:34;;;;;;;12.20;10.83;;;5.80;1.00;7.60;101109.00;;;;4965982;28;20469;-81
2021/10/16 06:43:15;;;;;;;13.93;10.03;;;5.90;1.00;8.00;101106.00;;;;4939128;29;20457;-81
2021/10/16 06:46:04;;;;;;;11.53;9.80;;;6.00;1.00;8.10;101126.00;;;;4942111;29;20481;-83
2021/10/16 06:48:48;;;;;;;17.80;11.13;;;6.10;1.00;8.30;101118.00;;;;4933453;29;20870;-82
2021/10/16 06:51:23;;;;;;;17.23;10.47;;;6.20;1.00;8.40;101089.00;;;;4935373;29;20452;-82
2021/10/16 06:53:51;;;;;;;18.77;10.97;;;6.30;1.00;8.40;101084.00;;;;4950031;28;20477;-82
2021/10/16 06:56:20;;;;;;;17.67;10.00;;;6.40;1.00;8.50;101041.00;;;;4951616;28;20505;-82
2021/10/16 06:58:49;;;;;;;11.77;9.77;;;6.60;1.00;8.50;101107.00;;;;4953817;29;20499;-83
2021/10/16 07:01:19;;;;;;;11.43;9.60;;;6.60;1.00;8.60;101095.00;;;;4936031;29;20496;-81
2021/10/16 07:03:53;;;;;;;14.13;9.10;;;6.60;1.00;8.70;101071.00;;;;4954660;29;20927;-82
2021/10/16 07:06:22;;;;;;;10.80;9.53;;;6.80;1.00;8.90;101119.00;;;;4955548;29;20500;-81
2021/10/16 07:08:52;;;;;;;10.40;9.23;;;7.00;1.00;8.90;101062.00;;;;4964930;29;20492;-83
2021/10/16 07:11:20;;;;;;;9.67;8.70;;;7.10;1.00;8.90;101123.00;;;;4956812;29;20472;-84
2021/10/16 07:13:49;;;;;;;14.47;8.83;;;7.10;1.00;9.10;101117.00;;;;4952823;28;20441;-83
2021/10/16 07:16:19;;;;;;;9.03;8.20;;;7.20;1.00;9.20;101110.00;;;;4959960;28;20480;-86
2021/10/16 07:18:48;;;;;;;9.97;8.93;;;7.40;1.00;9.30;101017.00;;;;4957151;29;20868;-82
2021/10/16 07:21:16;;;;;;;10.23;9.17;;;7.40;1.00;9.30;101125.00;;;;4944772;29;20461;-83
2021/10/16 07:24:00;;;;;;;9.20;8.30;;;7.50;1.00;9.50;101138.00;;;;4939036;29;20464;-81
2021/10/16 07:26:29;;;;;;;9.10;8.27;;;7.60;1.00;9.60;101124.00;;;;4954954;29;20504;-81
2021/10/16 07:28:58;;;;;;;9.93;8.60;;;7.60;1.00;9.70;101096.00;;;;4939455;29;20489;-82
2021/10/16 07:31:32;;;;;;;9.47;8.57;;;7.70;1.00;9.80;101072.00;;;;4942019;29;20937;-83
2021/10/16 07:34:00;;;;;;;10.07;8.43;;;7.80;1.00;9.80;101123.00;;;;4938909;29;20477;-82
2021/10/16 07:36:34;;;;;;;10.57;9.07;;;7.90;1.00;9.80;101138.00;;;;4938699;29;20845;-83
2021/10/16 07:39:06;;;;;;;9.07;8.17;;;8.00;1.00;9.90;101143.00;;;;4955718;28;20591;-82
2021/10/16 07:41:35;;;;;;;8.73;7.53;;;8.00;1.00;10.00;101138.00;;;;4940508;29;20468;-82
2021/10/16 07:44:05;;;;;;;8.83;7.87;;;8.00;1.00;10.00;101137.00;;;;4959686;29;20461;-82
2021/10/16 07:46:36;;;;;;;8.27;7.47;;;8.10;1.00;9.90;101069.00;;;;4939891;29;20476;-82
2021/10/16 07:49:05;;;;;;;8.73;7.30;;;8.20;1.00;10.20;101144.00;;;;4956546;29;20513;-82
2021/10/16 07:51:34;;;;;;;9.17;8.27;;;8.30;1.00;10.00;101075.00;;;;4942428;29;20467;-83
2021/10/16 07:54:02;;;;;;;8.40;7.60;;;8.40;1.00;10.50;101101.00;;;;4950241;29;20537;-81
2021/10/16 07:56:31;;;;;;;8.90;8.10;;;8.50;1.00;10.70;101092.00;;;;4947549;29;20449;-82
2021/10/16 07:59:01;;;;;;;9.87;8.13;;;8.70;1.00;10.80;101127.00;;;;4956762;28;20469;-83
2021/10/16 08:01:36;;;;;;;9.33;8.00;;;8.80;1.00;11.00;101125.00;;;;4956218;28;20481;-83
2021/10/16 08:04:05;;;;;;;8.57;7.47;;;9.10;1.00;11.00;101147.00;;;;4952542;29;20456;-82
2021/10/16 08:06:34;;;;;;;12.40;8.43;;;9.10;1.00;10.90;101117.00;;;;4969903;28;20719;-84
2021/10/16 08:09:04;;;;;;;9.23;7.83;;;9.20;1.00;11.00;101129.00;;;;4969502;29;20521;-83
2021/10/16 08:11:47;;;;;;;11.23;7.80;;;9.20;1.00;11.00;101114.00;;;;4953883;28;20561;-83
2021/10/16 08:14:15;;;;;;;10.30;7.40;;;9.20;1.00;10.90;101130.00;;;;4953781;29;20442;-82
2021/10/16 08:16:45;;;;;;;13.60;8.10;;;9.10;1.00;10.80;101132.00;;;;4959945;28;20468;-82
2021/10/16 08:19:14;;;;;;;8.63;7.00;;;9.10;1.00;10.70;101137.00;;;;4956009;28;20458;-83
2021/10/16 08:21:43;;;;;;;10.60;7.40;;;9.10;1.00;10.70;101123.00;;;;4957290;28;20496;-82
2021/10/16 08:24:15;;;;;;;9.40;6.80;;;9.00;1.00;10.70;101148.00;;;;4957729;29;20461;-83
2021/10/16 08:26:44;;;;;;;8.03;6.90;;;9.00;1.00;10.70;101134.00;;;;4957385;28;20495;-83
2021/10/16 08:29:13;;;;;;;10.87;7.83;;;9.10;1.00;10.70;101127.00;;;;4944355;29;20489;-82
2021/10/16 08:31:42;;;;;;;10.37;6.70;;;9.20;1.00;10.80;101130.00;;;;4947572;29;20540;-83
2021/10/16 08:34:12;;;;;;;7.90;7.10;;;9.20;1.00;10.80;101151.00;;;;4963871;29;20458;-85
2021/10/16 08:36:46;;;;;;;9.17;6.60;;;9.20;1.00;10.80;101018.00;;;;4951321;29;20453;-83
2021/10/16 08:39:15;;;;;;;8.20;6.83;;;9.20;1.00;10.70;101084.00;;;;4955672;29;20542;-86
2021/10/16 08:41:44;;;;;;;7.83;5.93;;;9.10;1.00;10.80;101059.00;;;;4954723;29;20489;-85
2021/10/16 08:44:13;;;;;;;8.83;5.90;;;9.10;1.00;10.80;101110.00;;;;4955184;29;20449;-82
2021/10/16 08:46:45;;;;;;;8.60;6.67;;;9.30;1.00;10.90;101147.00;;;;4956030;29;20461;-86
2021/10/16 08:49:16;;;;;;;13.10;6.50;;;9.30;1.00;10.70;101154.00;;;;4953068;29;20481;-85
2021/10/16 08:51:45;;;;;;;5.47;4.80;;;9.40;1.00;10.80;101147.00;;;;4953540;29;20442;-84
2021/10/16 08:54:14;;;;;;;10.73;5.53;;;9.30;1.00;10.80;101146.00;;;;4956795;28;20461;-82
2021/10/16 08:56:43;;;;;;;10.07;5.37;;;9.30;1.00;10.90;101140.00;;;;4956290;29;20454;-82
2021/10/16 08:59:12;;;;;;;8.60;5.87;;;9.40;1.00;10.90;101118.00;;;;4957380;28;20477;-83
2021/10/16 09:01:59;;;;;;;13.63;5.90;;;9.40;1.00;10.90;101150.00;;;;4955833;29;20488;-82
2021/10/16 09:04:32;;;;;;;8.87;5.20;;;9.50;1.00;11.00;101073.00;;;;4956674;29;20471;-84
2021/10/16 09:07:01;;;;;;;8.50;5.53;;;9.60;1.00;11.10;101140.00;;;;4956056;29;20457;-85
2021/10/16 09:09:32;;;;;;;10.03;6.00;;;9.80;1.00;11.20;101136.00;;;;4957263;28;20516;-82
2021/10/16 09:12:03;;;;;;;10.60;5.93;;;9.90;1.00;11.30;101147.00;;;;4974881;28;20453;-77
2021/10/16 09:14:32;;;;;;;9.80;5.40;;;9.90;1.00;11.40;101141.00;;;;4950469;29;20468;-76
2021/10/16 09:17:01;;;;;;;7.13;5.60;;;10.00;1.00;11.50;101153.00;;;;4950627;29;20454;-76
2021/10/16 09:19:33;;;;;;;9.43;5.43;;;10.10;1.00;11.50;101146.00;;;;4955344;29;20463;-76
2021/10/16 09:22:06;;;;;;;8.63;4.70;;;10.20;1.00;11.60;101152.00;;;;4945537;29;20548;-77
2021/10/16 09:24:38;;;;;;;8.33;5.00;;;10.30;1.00;11.60;101150.00;;;;4944588;29;20457;-76
2021/10/16 09:27:08;;;;;;;10.23;5.60;;;10.40;1.00;11.70;101151.00;;;;4944168;29;20478;-76
2021/10/16 09:29:39;;;;;;;9.20;5.63;;;10.50;1.00;11.70;101144.00;;;;4959820;28;20472;-77
2021/10/16 09:32:13;;;;;;;7.47;4.13;;;10.60;1.00;11.70;101143.00;;;;4947186;29;20904;-76
2021/10/16 09:34:45;;;;;;;7.27;4.40;;;10.60;1.00;11.70;101146.00;;;;4941852;29;20457;-76
2021/10/16 09:37:15;;;;;;;10.80;4.50;;;10.80;1.00;11.80;101144.00;;;;4942401;29;20879;-76
2021/10/16 09:39:54;;;;;;;8.47;5.60;;;10.70;1.00;11.80;101093.00;;;;4954416;29;20469;-76
2021/10/16 09:42:40;;;;;;;6.60;4.33;;;10.80;1.00;11.90;101139.00;;;;4938936;29;20528;-76
2021/10/16 09:45:12;;;;;;;11.10;5.20;;;10.80;1.00;11.90;101151.00;;;;4938351;29;20456;-76
2021/10/16 09:47:54;;;;;;;6.93;5.07;;;10.90;1.00;12.00;101139.00;;;;4936593;29;20482;-78
2021/10/16 09:50:25;;;;;;;7.30;4.50;;;10.90;1.00;12.10;101111.00;;;;4949979;29;20528;-76
2021/10/16 09:52:53;;;;;;;6.70;4.77;;;11.00;1.00;12.20;101135.00;;;;4949743;29;20457;-77
2021/10/16 09:55:22;;;;;;;9.53;4.63;;;11.10;1.00;12.20;101093.00;;;;4951483;28;20461;-76
2021/10/16 09:57:54;;;;;;;9.53;4.93;;;11.30;1.00;12.30;101119.00;;;;4955932;29;20465;-76
2021/10/16 10:00:26;;;;;;;10.07;5.00;;;11.30;1.00;12.40;101115.00;;;;4940759;29;20520;-76
2021/10/16 10:02:59;;;;;;;7.27;5.10;;;11.40;1.00;12.50;101131.00;;;;4935947;29;20488;-81
2021/10/16 10:05:30;;;;;;;7.17;5.07;;;11.60;1.00;12.60;101133.00;;;;4940080;29;20469;-81
2021/10/16 10:08:00;;;;;;;6.77;5.43;;;11.60;1.00;12.60;101091.00;;;;4953244;29;20454;-81
2021/10/16 10:10:30;;;;;;;8.00;6.77;;;11.60;1.00;12.70;101080.00;;;;4958620;28;20497;-80
2021/10/16 10:12:58;;;;;;;7.47;6.10;;;11.70;1.00;12.80;101107.00;;;;4958309;28;20453;-80
2021/10/16 10:15:27;;;;;;;7.73;5.60;;;11.80;1.00;12.90;101106.00;;;;4954531;28;20500;-80
2021/10/16 10:17:56;;;;;;;7.00;5.47;;;12.10;1.00;13.00;101138.00;;;;4946169;29;20500;-81
2021/10/16 10:20:28;;;;;;;9.40;6.37;;;12.10;1.00;13.10;101115.00;;;;4959214;28;20508;-81
2021/10/16 10:23:21;;;;;;;14.00;6.93;;;12.10;1.00;13.20;101032.00;;;;4944669;29;20465;-82
2021/10/16 10:25:50;;;;;;;9.67;6.00;;;12.30;1.00;13.20;101131.00;;;;4953717;29;20549;-84
2021/10/16 10:28:53;;;;;;;8.53;5.93;;;12.40;1.00;13.30;101101.00;;;;4955672;28;20491;-84
2021/10/16 10:32:03;;;;;;;6.67;5.83;;;12.50;1.00;13.40;101120.00;;;;4956826;28;20456;-81
2021/10/16 10:34:38;;;;;;;10.77;6.60;;;12.50;1.00;13.50;101118.00;;;;4945168;29;20432;-82
2021/10/16 10:37:11;;;;;;;12.03;5.97;;;12.60;1.00;13.50;101118.00;;;;4946830;29;20472;-83
2021/10/16 10:39:52;;;;;;;8.90;6.13;;;12.60;1.00;13.60;101120.00;;;;4945988;29;20453;-83
2021/10/16 10:42:42;;;;;;;8.13;6.20;;;12.60;1.00;13.60;101108.00;;;;4943908;29;20453;-80
2021/10/16 10:45:31;;;;;;;8.87;6.90;;;12.70;1.00;13.70;101116.00;;;;4943365;29;20488;-85
2021/10/16 10:48:06;;;;;;;11.53;6.47;;;12.80;1.00;13.80;101107.00;;;;4961356;29;20477;-84
2021/10/16 10:50:59;;;;;;;6.37;5.53;;;13.00;1.00;13.90;101100.00;;;;4941443;29;20461;-81
2021/10/16 10:53:44;;;;;;;8.33;5.37;;;13.00;1.00;13.90;101119.00;;;;4941891;29;20501;-82
2021/10/16 10:56:22;;;;;;;8.23;6.00;;;13.00;1.00;13.70;101107.00;;;;4940746;29;20513;-83
2021/10/16 10:59:12;;;;;;;10.03;6.50;;;13.00;1.00;14.00;101112.00;;;;4943778;29;20485;-83
2021/10/16 11:02:03;;;;;;;8.17;6.07;;;13.10;1.00;14.00;101091.00;;;;4954853;29;20986;-84
2021/10/16 11:04:51;;;;;;;9.93;6.03;;;13.20;1.00;14.10;101100.00;;;;4957458;28;20460;-82
2021/10/16 11:07:41;;;;;;;8.57;5.07;;;13.30;1.00;14.10;101094.00;;;;4958193;28;20479;-84
2021/10/16 11:10:13;;;;;;;9.87;6.27;;;13.20;1.00;14.20;101104.00;;;;4972974;29;20495;-84
2021/10/16 11:12:45;;;;;;;10.70;4.93;;;13.30;1.00;14.20;101100.00;;;;4953106;29;20544;-81
2021/10/16 11:15:15;;;;;;;12.20;6.10;;;13.50;1.00;14.30;101043.00;;;;4948522;29;20519;-84